Deadhorse Airport Deadhorse US
ICAO: PASC
IATA:
Category: Medium
Scheduled Services:

Elevation: 65 ft
TransAlt. 18000 ft.

Airport Communications:
ATIS:118.4
ANCHORAGE CNTR:134.4
CTAF:123.6
RDO:122.2
UNICOM:123

PASC Zoom In..

If Map Doesn't Load, Click Here

Runways:

(A) RW 05 length 6500 ft width 150 ft
ILS 109.30 / hdg 52

(B) RW 06 length 6500 ft width 100 ft
---- / hdg 52

(C) RW 23 length 6500 ft width 150 ft
---- / hdg 232

(D) RW 24 length 6500 ft width 100 ft
---- / hdg 232

Location; PASC
Day. 23 / Time. 08.53 Zulu
* Altimeter: 29.77
* Temperature: -01° c. -30.2°f.
* Wind from: 070° Speed 10 kn.
Dewpoint: -02° c.
Visibility: 10 Statute Miles.
Clouds: Overcast 1900 ft.

PASC 230853Z 07010KT 10SM OVC019 M01/M02 A2977 RMK AO2 SLP083 T10061022 400001017 53006


Wind From 070°
Speed 10 kn.

 
 
jpsmedia.com for Web Design worldairports.se 2018   terms of use